createdAt,value
2023-03-11T00:00:48.822Z,2.90
2023-03-11T00:03:18.509Z,3.20
2023-03-11T00:05:47.743Z,3.27
2023-03-11T00:08:19.924Z,3.07
2023-03-11T00:10:52.692Z,3.30
2023-03-11T00:13:20.222Z,3.37
2023-03-11T00:15:51.503Z,4.40
2023-03-11T00:18:19.456Z,4.47
2023-03-11T00:20:47.877Z,4.80
2023-03-11T00:23:16.459Z,4.23
2023-03-11T00:25:45.980Z,2.97
2023-03-11T00:28:17.265Z,3.60
2023-03-11T00:30:47.355Z,6.13
2023-03-11T00:33:16.647Z,3.70
2023-03-11T00:35:44.946Z,3.70
2023-03-11T00:38:15.973Z,3.37
2023-03-11T00:40:46.109Z,3.40
2023-03-11T00:43:14.766Z,2.70
2023-03-11T00:45:42.538Z,3.50
2023-03-11T00:48:11.615Z,3.23
2023-03-11T00:50:39.269Z,2.97
2023-03-11T00:53:07.084Z,2.70
2023-03-11T00:55:35.972Z,3.57
2023-03-11T00:58:08.449Z,7.03
2023-03-11T01:00:56.364Z,13.97
2023-03-11T01:03:23.829Z,6.07
2023-03-11T01:05:51.380Z,5.00
2023-03-11T01:08:18.960Z,10.50
2023-03-11T01:10:46.400Z,7.63
2023-03-11T01:13:13.902Z,8.00
2023-03-11T01:15:41.461Z,6.10
2023-03-11T01:18:08.925Z,4.40
2023-03-11T01:20:38.481Z,6.50
2023-03-11T01:23:07.073Z,7.50
2023-03-11T01:25:35.532Z,7.10
2023-03-11T01:28:03.116Z,4.47
2023-03-11T01:30:31.511Z,3.50
2023-03-11T01:32:59.569Z,3.30
2023-03-11T01:35:29.541Z,3.17
2023-03-11T01:37:57.879Z,3.40
2023-03-11T01:40:36.658Z,3.10
2023-03-11T01:43:37.399Z,3.10
2023-03-11T01:46:11.281Z,3.77
2023-03-11T01:48:39.369Z,3.60
2023-03-11T01:51:08.016Z,3.10
2023-03-11T01:53:36.462Z,3.40
2023-03-11T01:56:06.168Z,3.10
2023-03-11T01:58:39.683Z,3.13
2023-03-11T02:01:08.119Z,3.03
2023-03-11T02:03:40.566Z,3.67
2023-03-11T02:06:14.679Z,3.27
2023-03-11T02:08:44.636Z,3.30
2023-03-11T02:11:28.384Z,3.10
2023-03-11T02:14:01.607Z,4.60
2023-03-11T02:16:29.561Z,5.20
2023-03-11T02:19:04.850Z,5.00
2023-03-11T02:21:35.142Z,3.63
2023-03-11T02:24:14.550Z,3.50
2023-03-11T02:27:06.123Z,3.47
2023-03-11T02:29:35.654Z,3.37
2023-03-11T02:32:09.377Z,3.30
2023-03-11T02:34:42.184Z,4.17
2023-03-11T02:37:13.626Z,3.77
2023-03-11T02:39:48.655Z,3.70
2023-03-11T02:42:25.991Z,4.97
2023-03-11T02:45:04.868Z,4.67
2023-03-11T02:47:33.659Z,3.20
2023-03-11T02:50:01.296Z,3.10
2023-03-11T02:52:30.938Z,3.53
2023-03-11T02:54:58.491Z,3.20
2023-03-11T02:57:26.037Z,3.23
2023-03-11T02:59:54.045Z,3.30
2023-03-11T03:02:21.972Z,3.20
2023-03-11T03:04:50.037Z,3.13
2023-03-11T03:07:17.722Z,4.80
2023-03-11T03:09:45.322Z,3.67
2023-03-11T03:12:13.148Z,3.83
2023-03-11T03:14:40.623Z,4.10
2023-03-11T03:17:08.366Z,4.33
2023-03-11T03:19:36.113Z,5.70
2023-03-11T03:22:03.898Z,4.70
2023-03-11T03:24:31.475Z,5.37
2023-03-11T03:26:59.018Z,6.13
2023-03-11T03:29:26.689Z,16.47
2023-03-11T03:31:55.075Z,12.07
2023-03-11T03:34:22.901Z,8.00
2023-03-11T03:36:50.508Z,18.77
2023-03-11T03:39:20.042Z,9.40
2023-03-11T03:41:49.435Z,5.63
2023-03-11T03:44:17.258Z,6.33
2023-03-11T03:46:44.929Z,7.07
2023-03-11T03:49:13.253Z,3.73
2023-03-11T03:51:41.527Z,4.67
2023-03-11T03:54:29.197Z,4.30
2023-03-11T03:56:57.420Z,5.20
2023-03-11T03:59:25.603Z,6.20
2023-03-11T04:01:59.811Z,4.70
2023-03-11T04:04:31.517Z,4.30
2023-03-11T04:06:59.395Z,4.60
2023-03-11T04:09:27.413Z,4.20
2023-03-11T04:11:55.437Z,5.63
2023-03-11T04:14:23.152Z,4.80
2023-03-11T04:16:55.799Z,4.70
2023-03-11T04:19:23.482Z,4.23
2023-03-11T04:21:52.031Z,4.77
2023-03-11T04:24:21.354Z,5.30
2023-03-11T04:26:52.127Z,5.80
2023-03-11T04:29:20.427Z,4.30
2023-03-11T04:31:51.197Z,5.20
2023-03-11T04:34:19.460Z,5.53
2023-03-11T04:36:47.057Z,5.80
2023-03-11T04:39:17.100Z,5.50
2023-03-11T04:41:46.808Z,6.60
2023-03-11T04:44:18.642Z,5.70
2023-03-11T04:46:46.888Z,5.80
2023-03-11T04:49:14.407Z,4.90
2023-03-11T04:51:43.232Z,4.37
2023-03-11T04:54:11.945Z,3.90
2023-03-11T04:56:39.751Z,4.10
2023-03-11T04:59:08.084Z,4.13
2023-03-11T05:01:38.156Z,4.27
2023-03-11T05:04:08.358Z,5.13
2023-03-11T05:06:36.385Z,5.00
2023-03-11T05:09:05.222Z,5.43
2023-03-11T05:11:36.603Z,4.77
2023-03-11T05:14:04.612Z,5.13
2023-03-11T05:16:32.260Z,5.03
2023-03-11T05:18:59.839Z,5.23
2023-03-11T05:21:27.363Z,5.13
2023-03-11T05:24:14.859Z,6.23
2023-03-11T05:26:42.432Z,7.00
2023-03-11T05:29:12.946Z,6.30
2023-03-11T05:31:40.730Z,5.77
2023-03-11T05:34:10.226Z,10.20
2023-03-11T05:36:37.792Z,14.20
2023-03-11T05:39:05.937Z,9.50
2023-03-11T05:41:35.435Z,7.27
2023-03-11T05:44:04.561Z,8.43
2023-03-11T05:46:32.938Z,8.83
2023-03-11T05:49:01.814Z,14.83
2023-03-11T05:51:29.732Z,15.13
2023-03-11T05:53:58.729Z,13.43
2023-03-11T05:56:34.907Z,9.50
2023-03-11T05:59:03.822Z,8.13
2023-03-11T06:01:35.417Z,6.53
2023-03-11T06:04:04.618Z,6.67
2023-03-11T06:06:32.708Z,8.13
2023-03-11T06:09:01.957Z,6.90
2023-03-11T06:11:30.269Z,8.87
2023-03-11T06:13:59.136Z,11.47
2023-03-11T06:16:29.136Z,9.40
2023-03-11T06:19:00.952Z,4.47
2023-03-11T06:21:32.204Z,6.93
2023-03-11T06:23:59.999Z,9.97
2023-03-11T06:26:29.134Z,11.30
2023-03-11T06:28:56.697Z,8.23
2023-03-11T06:31:27.507Z,6.27
2023-03-11T06:34:02.627Z,4.30
2023-03-11T06:36:30.325Z,5.90
2023-03-11T06:39:01.209Z,4.93
2023-03-11T06:41:29.749Z,3.90
2023-03-11T06:43:59.848Z,3.07
2023-03-11T06:46:29.053Z,3.53
2023-03-11T06:48:58.274Z,2.80
2023-03-11T06:51:26.022Z,3.33
2023-03-11T06:53:54.738Z,3.00
2023-03-11T06:56:24.645Z,2.87
2023-03-11T06:59:00.658Z,2.90
2023-03-11T07:01:31.848Z,3.60
2023-03-11T07:04:01.585Z,2.93
2023-03-11T07:06:30.146Z,3.17
2023-03-11T07:09:12.876Z,3.07
2023-03-11T07:11:44.174Z,3.07
2023-03-11T07:14:18.768Z,3.63
2023-03-11T07:16:49.916Z,3.73
2023-03-11T07:19:34.877Z,3.67
2023-03-11T07:22:02.415Z,3.63
2023-03-11T07:24:30.073Z,4.37
2023-03-11T07:26:57.527Z,7.43
2023-03-11T07:29:24.987Z,13.13
2023-03-11T07:31:52.878Z,2.60
2023-03-11T07:34:20.583Z,1.73
2023-03-11T07:36:48.156Z,1.60
2023-03-11T07:39:18.979Z,1.20
2023-03-11T07:41:47.590Z,1.50
2023-03-11T07:44:17.043Z,2.47
2023-03-11T07:46:45.652Z,1.70
2023-03-11T07:49:15.207Z,1.50
2023-03-11T07:51:44.131Z,1.20
2023-03-11T07:54:15.210Z,1.33
2023-03-11T07:56:43.004Z,1.30
2023-03-11T07:59:10.948Z,0.90
2023-03-11T08:01:41.215Z,0.70
2023-03-11T08:04:14.403Z,1.27
2023-03-11T08:06:45.657Z,1.20
2023-03-11T08:09:14.284Z,0.90
2023-03-11T08:11:43.130Z,1.20
2023-03-11T08:14:10.901Z,1.00
2023-03-11T08:16:41.280Z,1.47
2023-03-11T08:19:12.943Z,1.10
2023-03-11T08:21:40.833Z,2.03
2023-03-11T08:24:13.508Z,1.63
2023-03-11T08:26:42.538Z,1.07
2023-03-11T08:29:10.428Z,0.80
2023-03-11T08:31:38.046Z,1.33
2023-03-11T08:34:12.541Z,1.07
2023-03-11T08:36:40.506Z,1.00
2023-03-11T08:39:08.258Z,1.07
2023-03-11T08:41:36.677Z,2.20
2023-03-11T08:44:06.205Z,1.67
2023-03-11T08:46:38.277Z,2.57
2023-03-11T08:49:07.220Z,1.27
2023-03-11T08:51:36.552Z,1.63
2023-03-11T08:54:06.437Z,1.73
2023-03-11T08:56:33.939Z,2.77
2023-03-11T08:59:01.499Z,1.57
2023-03-11T09:01:30.715Z,1.27
2023-03-11T09:03:58.486Z,1.10
2023-03-11T09:06:26.326Z,1.30
2023-03-11T09:08:53.895Z,1.30
2023-03-11T09:11:23.840Z,1.10
2023-03-11T09:13:51.508Z,1.20
2023-03-11T09:16:23.805Z,2.33
2023-03-11T09:18:51.459Z,1.40
2023-03-11T09:21:20.426Z,1.90
2023-03-11T09:23:48.637Z,1.30
2023-03-11T09:26:16.677Z,1.20
2023-03-11T09:28:48.920Z,2.53
2023-03-11T09:31:17.739Z,1.10
2023-03-11T09:33:47.132Z,1.50
2023-03-11T09:36:19.612Z,1.10
2023-03-11T09:38:49.965Z,0.93
2023-03-11T09:41:38.303Z,1.00
2023-03-11T09:44:19.715Z,1.80
2023-03-11T09:47:19.692Z,1.40
2023-03-11T09:50:13.073Z,1.53
2023-03-11T09:52:46.755Z,1.20
2023-03-11T09:55:38.183Z,1.20
2023-03-11T09:58:32.542Z,1.20
2023-03-11T10:01:00.732Z,1.83
2023-03-11T10:03:37.392Z,1.17
2023-03-11T10:06:24.591Z,1.73
2023-03-11T10:09:13.049Z,1.40
2023-03-11T10:12:39.176Z,1.60
2023-03-11T10:15:30.884Z,2.03
2023-03-11T10:18:20.720Z,1.27
2023-03-11T10:21:29.927Z,1.20
2023-03-11T10:24:33.061Z,1.17
2023-03-11T10:27:08.618Z,1.10
2023-03-11T10:30:17.807Z,1.20
2023-03-11T10:33:01.456Z,0.90
2023-03-11T10:35:42.479Z,1.03
2023-03-11T10:38:31.690Z,0.90
2023-03-11T10:41:05.500Z,1.10
2023-03-11T10:43:39.256Z,0.90
2023-03-11T10:46:25.703Z,0.70
2023-03-11T10:48:53.272Z,0.80
2023-03-11T10:51:35.887Z,0.87
2023-03-11T10:54:05.424Z,0.90
2023-03-11T10:56:41.441Z,1.13
2023-03-11T10:59:48.422Z,0.90
2023-03-11T11:02:27.948Z,0.53
2023-03-11T11:05:20.296Z,0.70
2023-03-11T11:07:50.895Z,0.57
2023-03-11T11:10:21.883Z,1.30
2023-03-11T11:12:52.349Z,1.23
2023-03-11T11:15:26.696Z,0.80
2023-03-11T11:18:07.617Z,0.77
2023-03-11T11:20:36.135Z,0.90
2023-03-11T11:23:04.917Z,0.80
2023-03-11T11:25:37.283Z,1.10
2023-03-11T11:28:19.495Z,0.80
2023-03-11T11:31:06.868Z,0.80
2023-03-11T11:33:51.971Z,0.87
2023-03-11T11:36:27.894Z,0.77
2023-03-11T11:38:57.081Z,0.80
2023-03-11T11:41:27.308Z,0.73
2023-03-11T11:43:57.319Z,0.77
2023-03-11T11:47:06.463Z,1.10
2023-03-11T11:49:35.951Z,0.53
2023-03-11T11:52:17.990Z,1.30
2023-03-11T11:55:09.954Z,0.70
2023-03-11T11:57:38.203Z,0.70
2023-03-11T12:00:35.748Z,0.63
2023-03-11T12:04:03.052Z,0.93
2023-03-11T12:06:48.232Z,0.97
2023-03-11T12:09:28.854Z,0.80
2023-03-11T12:12:29.951Z,0.80
2023-03-11T12:15:24.436Z,0.93
2023-03-11T12:17:59.383Z,1.00
2023-03-11T12:20:59.408Z,1.03
2023-03-11T12:23:45.946Z,0.73
2023-03-11T12:26:23.137Z,1.00
2023-03-11T12:29:08.414Z,2.10
2023-03-11T12:31:40.379Z,1.23
2023-03-11T12:34:13.366Z,1.27
2023-03-11T12:36:45.039Z,0.60
2023-03-11T12:39:30.081Z,0.97
2023-03-11T12:42:21.819Z,0.60
2023-03-11T12:44:53.496Z,0.93
2023-03-11T12:47:24.334Z,0.80
2023-03-11T12:50:35.748Z,0.70
2023-03-11T12:53:03.915Z,0.60
2023-03-11T12:55:35.520Z,0.90
2023-03-11T12:58:28.093Z,0.80
2023-03-11T13:01:36.647Z,0.90
2023-03-11T13:04:22.760Z,2.20
2023-03-11T13:07:25.835Z,2.40
2023-03-11T13:10:08.331Z,1.70
2023-03-11T13:12:49.277Z,1.80
2023-03-11T13:15:19.993Z,1.40
2023-03-11T13:18:14.675Z,1.40
2023-03-11T13:20:42.130Z,1.33
2023-03-11T13:23:23.523Z,1.00
2023-03-11T13:25:53.870Z,0.97
2023-03-11T13:28:59.003Z,1.00
2023-03-11T13:31:53.386Z,1.00
2023-03-11T13:34:26.356Z,1.20
2023-03-11T13:37:29.842Z,1.20
2023-03-11T13:40:37.484Z,1.90
2023-03-11T13:43:12.140Z,2.53
2023-03-11T13:45:42.152Z,1.80
2023-03-11T13:48:29.278Z,1.83
2023-03-11T13:51:06.705Z,1.80
2023-03-11T13:53:58.883Z,1.40
2023-03-11T13:56:35.296Z,0.90
2023-03-11T13:59:27.493Z,0.70
2023-03-11T14:02:01.761Z,1.10
2023-03-11T14:04:37.751Z,0.87
2023-03-11T14:07:28.605Z,0.93
2023-03-11T14:10:32.382Z,1.93
2023-03-11T14:13:31.802Z,1.50
2023-03-11T14:16:36.379Z,1.53
2023-03-11T14:19:18.732Z,1.10
2023-03-11T14:22:09.419Z,1.33
2023-03-11T14:24:39.823Z,1.30
2023-03-11T14:27:11.209Z,1.83
2023-03-11T14:29:43.629Z,1.30
2023-03-11T14:32:34.245Z,1.40
2023-03-11T14:35:17.576Z,1.13
2023-03-11T14:37:45.299Z,1.10
2023-03-11T14:40:38.103Z,1.33
2023-03-11T14:43:13.052Z,1.10
2023-03-11T14:45:44.036Z,1.30
2023-03-11T14:48:39.551Z,1.40
2023-03-11T14:51:22.118Z,1.70
2023-03-11T14:54:03.253Z,2.40
2023-03-11T14:56:38.720Z,3.07
2023-03-11T14:59:15.778Z,5.17
2023-03-11T15:01:45.503Z,3.07
2023-03-11T15:04:26.236Z,2.23
2023-03-11T15:06:56.620Z,2.87
2023-03-11T15:09:29.533Z,4.17
2023-03-11T15:12:06.864Z,3.70
2023-03-11T15:14:37.613Z,2.00
2023-03-11T15:17:38.552Z,2.10
2023-03-11T15:20:32.523Z,1.47
2023-03-11T15:23:05.468Z,1.47
2023-03-11T15:25:38.168Z,1.70
2023-03-11T15:28:35.834Z,1.30
2023-03-11T15:31:40.004Z,1.53
2023-03-11T15:34:17.239Z,2.10
2023-03-11T15:36:50.507Z,2.40
2023-03-11T15:39:51.079Z,1.40
2023-03-11T15:42:27.487Z,1.67
2023-03-11T15:45:19.643Z,1.87
2023-03-11T15:47:50.820Z,2.33
2023-03-11T15:50:30.756Z,2.40
2023-03-11T15:53:05.082Z,2.70
2023-03-11T15:55:33.985Z,2.60
2023-03-11T15:58:08.675Z,3.00
2023-03-11T16:00:38.124Z,3.43
2023-03-11T16:03:06.205Z,5.43
2023-03-11T16:05:33.745Z,3.70
2023-03-11T16:08:01.341Z,2.97
2023-03-11T16:10:28.962Z,2.77
2023-03-11T16:12:59.927Z,1.83
2023-03-11T16:15:33.160Z,1.70
2023-03-11T16:18:03.943Z,2.97
2023-03-11T16:20:52.050Z,4.60
2023-03-11T16:23:48.570Z,5.53
2023-03-11T16:26:19.387Z,9.07
2023-03-11T16:28:47.294Z,6.20
2023-03-11T16:31:14.874Z,5.60
2023-03-11T16:33:44.848Z,5.60
2023-03-11T16:36:12.432Z,5.77
2023-03-11T16:38:48.179Z,4.00
2023-03-11T16:41:18.880Z,4.57
2023-03-11T16:43:46.671Z,5.03
2023-03-11T16:46:14.155Z,4.37
2023-03-11T16:48:42.474Z,3.63
2023-03-11T16:51:10.079Z,4.23
2023-03-11T16:53:37.703Z,3.47
2023-03-11T16:56:07.487Z,4.90
2023-03-11T16:58:34.977Z,2.80
2023-03-11T17:01:05.097Z,4.63
2023-03-11T17:03:42.619Z,5.90
2023-03-11T17:06:12.598Z,4.47
2023-03-11T17:08:42.884Z,4.83
2023-03-11T17:11:23.056Z,5.37
2023-03-11T17:13:55.366Z,4.47
2023-03-11T17:16:24.531Z,6.30
2023-03-11T17:18:53.240Z,10.23
2023-03-11T17:21:21.510Z,6.60
2023-03-11T17:23:50.078Z,3.93
2023-03-11T17:26:18.635Z,4.63
2023-03-11T17:28:47.115Z,5.43
2023-03-11T17:31:17.449Z,3.07
2023-03-11T17:33:47.358Z,3.47
2023-03-11T17:36:18.444Z,2.73
2023-03-11T17:38:47.500Z,5.03
2023-03-11T17:41:18.383Z,5.13
2023-03-11T17:43:51.357Z,3.23
2023-03-11T17:46:23.164Z,4.37
2023-03-11T17:48:53.093Z,4.93
2023-03-11T17:51:24.456Z,5.87
2023-03-11T17:53:57.223Z,7.00
2023-03-11T17:56:26.631Z,7.67
2023-03-11T17:58:54.499Z,2.63
2023-03-11T18:01:25.604Z,3.30
2023-03-11T18:03:59.481Z,3.87
2023-03-11T18:06:30.569Z,2.80
2023-03-11T18:08:59.569Z,2.70
2023-03-11T18:11:28.904Z,11.07
2023-03-11T18:13:59.361Z,19.43
2023-03-11T18:16:32.856Z,18.00
2023-03-11T18:19:01.115Z,13.03
2023-03-11T18:21:31.010Z,13.73
2023-03-11T18:24:01.074Z,9.37
2023-03-11T18:26:31.275Z,4.10
2023-03-11T18:29:02.679Z,3.37
2023-03-11T18:31:33.713Z,2.57
2023-03-11T18:34:23.237Z,2.10
2023-03-11T18:36:50.726Z,1.70
2023-03-11T18:39:18.276Z,1.80
2023-03-11T18:41:45.991Z,4.67
2023-03-11T18:44:13.664Z,8.07
2023-03-11T18:46:42.509Z,8.30
2023-03-11T18:49:13.446Z,6.87
2023-03-11T18:51:41.210Z,3.70
2023-03-11T18:54:10.583Z,5.90
2023-03-11T18:56:38.148Z,9.73
2023-03-11T18:59:08.807Z,7.37
2023-03-11T19:01:36.438Z,5.30
2023-03-11T19:04:04.228Z,7.17
2023-03-11T19:06:37.359Z,5.67
2023-03-11T19:09:06.756Z,4.43
2023-03-11T19:11:34.340Z,3.07
2023-03-11T19:14:02.179Z,3.00
2023-03-11T19:16:35.016Z,2.23
2023-03-11T19:19:05.145Z,1.80
2023-03-11T19:21:34.579Z,1.10
2023-03-11T19:24:07.760Z,1.10
2023-03-11T19:26:45.114Z,1.37
2023-03-11T19:29:14.919Z,1.07
2023-03-11T19:31:48.135Z,1.40
2023-03-11T19:34:15.890Z,1.90
2023-03-11T19:36:48.009Z,1.60
2023-03-11T19:39:16.264Z,1.43
2023-03-11T19:41:45.156Z,1.10
2023-03-11T19:44:18.359Z,1.17
2023-03-11T19:46:46.984Z,1.37
2023-03-11T19:49:14.684Z,1.70
2023-03-11T19:51:50.104Z,1.73
2023-03-11T19:54:19.408Z,1.50
2023-03-11T19:56:48.140Z,1.50
2023-03-11T19:59:17.537Z,1.40
2023-03-11T20:01:48.183Z,1.50
2023-03-11T20:04:16.498Z,1.90
2023-03-11T20:06:47.899Z,1.80
2023-03-11T20:09:17.646Z,1.50
2023-03-11T20:11:47.167Z,2.00
2023-03-11T20:14:15.634Z,2.20
2023-03-11T20:16:44.604Z,2.00
2023-03-11T20:19:13.093Z,2.23
2023-03-11T20:21:46.067Z,2.10
2023-03-11T20:24:15.576Z,2.20
2023-03-11T20:26:44.467Z,2.00
2023-03-11T20:29:13.152Z,2.80
2023-03-11T20:31:41.255Z,3.00
2023-03-11T20:34:14.270Z,2.50
2023-03-11T20:36:47.040Z,2.60
2023-03-11T20:39:14.697Z,2.80
2023-03-11T20:41:43.228Z,2.50
2023-03-11T20:44:14.984Z,2.73
2023-03-11T20:46:47.665Z,2.77
2023-03-11T20:49:19.854Z,3.03
2023-03-11T20:51:48.271Z,2.60
2023-03-11T20:54:19.357Z,2.63
2023-03-11T20:56:50.724Z,2.10
2023-03-11T20:59:32.140Z,2.10
2023-03-11T21:02:13.093Z,2.10
2023-03-11T21:04:43.280Z,2.00
2023-03-11T21:07:11.799Z,2.73
2023-03-11T21:09:40.694Z,2.23
2023-03-11T21:12:10.988Z,2.33
2023-03-11T21:14:46.899Z,2.23
2023-03-11T21:17:17.425Z,2.17
2023-03-11T21:19:45.296Z,1.90
2023-03-11T21:22:13.838Z,1.97
2023-03-11T21:24:42.552Z,1.90
2023-03-11T21:27:10.277Z,1.70
2023-03-11T21:29:37.927Z,2.03
2023-03-11T21:32:09.040Z,2.27
2023-03-11T21:34:36.779Z,1.90
2023-03-11T21:37:05.660Z,2.10
2023-03-11T21:39:33.229Z,1.50
2023-03-11T21:42:00.678Z,1.80
2023-03-11T21:44:29.034Z,1.90
2023-03-11T21:46:56.637Z,1.63
2023-03-11T21:49:24.577Z,1.60
2023-03-11T21:51:55.007Z,1.93
2023-03-11T21:54:46.374Z,1.20
2023-03-11T21:57:15.665Z,2.20
2023-03-11T21:59:44.929Z,1.87
2023-03-11T22:02:16.495Z,2.33
2023-03-11T22:04:45.048Z,1.97
2023-03-11T22:07:12.870Z,1.80
2023-03-11T22:09:40.446Z,1.87
2023-03-11T22:12:09.182Z,1.70
2023-03-11T22:14:36.897Z,1.90
2023-03-11T22:17:04.687Z,2.20
2023-03-11T22:19:34.877Z,1.90
2023-03-11T22:22:02.609Z,1.87
2023-03-11T22:24:31.524Z,2.00
2023-03-11T22:27:00.385Z,2.03
2023-03-11T22:29:28.415Z,1.70
2023-03-11T22:31:58.902Z,2.90
2023-03-11T22:34:26.400Z,1.70
2023-03-11T22:36:53.852Z,1.70
2023-03-11T22:39:21.373Z,1.90
2023-03-11T22:41:49.065Z,1.80
2023-03-11T22:44:16.607Z,1.77
2023-03-11T22:46:44.069Z,2.20
2023-03-11T22:49:11.580Z,2.07
2023-03-11T22:51:39.163Z,2.30
2023-03-11T22:54:06.892Z,2.13
2023-03-11T22:56:34.613Z,2.17
2023-03-11T22:59:02.891Z,1.90
2023-03-11T23:01:30.411Z,1.87
2023-03-11T23:03:58.116Z,2.70
2023-03-11T23:06:27.498Z,2.57
2023-03-11T23:08:54.994Z,2.30
2023-03-11T23:11:23.424Z,2.33
2023-03-11T23:13:54.811Z,1.83
2023-03-11T23:16:26.362Z,1.77
2023-03-11T23:18:55.985Z,1.90
2023-03-11T23:21:32.563Z,2.17
2023-03-11T23:24:02.334Z,1.83
2023-03-11T23:26:30.924Z,1.90
2023-03-11T23:28:58.642Z,1.83
2023-03-11T23:31:27.752Z,1.70
2023-03-11T23:33:55.758Z,1.60
2023-03-11T23:36:32.613Z,1.40
2023-03-11T23:39:01.183Z,1.67
2023-03-11T23:41:29.252Z,1.70
2023-03-11T23:43:56.762Z,1.90
2023-03-11T23:46:24.326Z,1.93
2023-03-11T23:48:51.934Z,1.90
2023-03-11T23:51:19.701Z,2.00
2023-03-11T23:53:47.633Z,1.87
2023-03-11T23:56:18.715Z,1.80
2023-03-11T23:58:47.071Z,1.53
